Time;durP1;ratioP1;P1;durP2;ratioP2;P2;SDS_P1;SDS_P2;PMS_P1;PMS_P2;Temp;Humidity;BMP_temperature;BMP_pressure;BME280_temperature;BME280_humidity;BME280_pressure;Samples;Min_cycle;Max_cycle;Signal;HPM_P1;HPM_P2
2022/01/17 00:02:03;;;;;;;12.43;2.05;;;6.00;99.90;;;;;;5086816;28;20119;-67
2022/01/17 00:04:29;;;;;;;10.88;2.03;;;6.00;99.90;;;;;;5073601;28;20095;-66
2022/01/17 00:06:55;;;;;;;11.95;2.30;;;6.00;99.90;;;;;;5071804;28;20402;-70
2022/01/17 00:09:22;;;;;;;10.95;2.50;;;5.90;99.90;;;;;;5090536;28;20113;-66
2022/01/17 00:11:49;;;;;;;14.07;2.78;;;5.90;99.90;;;;;;5093634;28;20399;-67
2022/01/17 00:14:18;;;;;;;8.45;1.90;;;5.90;99.90;;;;;;5075307;28;20050;-68
2022/01/17 00:16:53;;;;;;;8.93;2.20;;;5.90;99.90;;;;;;5091793;28;20123;-67
2022/01/17 00:21:47;;;;;;;7.28;2.33;;;5.80;99.90;;;;;;5091638;28;20063;-65
2022/01/17 00:24:13;;;;;;;10.15;1.80;;;5.80;99.90;;;;;;5074033;28;20052;-66
2022/01/17 00:26:39;;;;;;;14.15;2.47;;;5.80;99.90;;;;;;5091288;28;20061;-67
2022/01/17 00:29:05;;;;;;;9.60;2.10;;;5.80;99.90;;;;;;5092652;28;20373;-65
2022/01/17 00:31:30;;;;;;;17.58;3.53;;;5.80;99.90;;;;;;5085004;28;20044;-66
2022/01/17 00:33:56;;;;;;;11.45;2.22;;;5.70;99.90;;;;;;5083776;28;20198;-66
2022/01/17 00:36:21;;;;;;;8.68;2.53;;;5.70;99.90;;;;;;5091647;28;20113;-65
2022/01/17 00:38:47;;;;;;;8.75;1.88;;;5.70;99.90;;;;;;5089917;28;20052;-68
2022/01/17 00:41:12;;;;;;;9.23;2.05;;;5.70;99.90;;;;;;5072667;28;20049;-67
2022/01/17 00:43:38;;;;;;;7.80;2.05;;;5.70;99.90;;;;;;5071800;28;20072;-67
2022/01/17 00:46:03;;;;;;;14.57;2.20;;;5.70;99.90;;;;;;5071322;28;20578;-68
2022/01/17 00:48:29;;;;;;;10.80;2.22;;;5.60;99.90;;;;;;5073867;28;20110;-65
2022/01/17 00:50:55;;;;;;;14.60;2.92;;;5.50;99.90;;;;;;5092796;28;20477;-67
2022/01/17 00:53:20;;;;;;;11.98;2.08;;;5.50;99.90;;;;;;5091753;28;20044;-66
2022/01/17 00:55:46;;;;;;;8.02;2.33;;;5.50;99.90;;;;;;5091706;28;20044;-68
2022/01/17 00:58:12;;;;;;;12.57;2.55;;;5.50;99.90;;;;;;5091641;28;20452;-67
2022/01/17 01:00:38;;;;;;;17.33;3.13;;;5.50;99.90;;;;;;5091727;28;20457;-67
2022/01/17 01:03:04;;;;;;;11.18;2.50;;;5.50;99.90;;;;;;5090490;28;20055;-66
2022/01/17 01:05:30;;;;;;;11.30;2.47;;;5.50;99.90;;;;;;5091640;28;20101;-67
2022/01/17 01:07:56;;;;;;;12.45;1.98;;;5.60;99.90;;;;;;5085338;28;20392;-68
2022/01/17 01:10:22;;;;;;;13.48;2.55;;;5.50;99.90;;;;;;5055172;28;20123;-66
2022/01/17 01:12:49;;;;;;;12.00;2.67;;;5.60;99.90;;;;;;5071266;28;20519;-65
2022/01/17 01:15:20;;;;;;;13.05;2.28;;;5.60;99.90;;;;;;5077728;28;20051;-66
2022/01/17 01:17:55;;;;;;;17.42;2.72;;;5.60;99.90;;;;;;5090636;28;20058;-66
2022/01/17 01:20:50;;;;;;;9.57;2.10;;;5.50;99.90;;;;;;5072382;28;20389;-67
2022/01/17 01:28:43;;;;;;;10.30;2.85;;;5.40;99.90;;;;;;5070839;28;20056;-66
2022/01/17 01:31:20;;;;;;;14.63;2.92;;;5.40;99.90;;;;;;5070997;28;20057;-66
2022/01/17 01:33:53;;;;;;;11.07;2.03;;;5.30;99.90;;;;;;5082852;28;20338;-67
2022/01/17 01:36:27;;;;;;;11.65;2.67;;;5.30;99.90;;;;;;5092970;28;20566;-67
2022/01/17 01:38:53;;;;;;;10.40;2.80;;;5.30;99.90;;;;;;5091014;28;20040;-67
2022/01/17 01:41:20;;;;;;;12.60;2.55;;;5.30;99.90;;;;;;5091400;28;20177;-66
2022/01/17 01:43:46;;;;;;;13.93;2.33;;;5.20;99.90;;;;;;5091251;28;20055;-66
2022/01/17 01:46:17;;;;;;;13.07;2.60;;;5.20;99.90;;;;;;5072467;28;20053;-65
2022/01/17 01:48:42;;;;;;;13.90;2.55;;;5.20;99.90;;;;;;5091808;28;20496;-66
2022/01/17 01:51:09;;;;;;;13.15;2.40;;;5.20;99.90;;;;;;5090930;28;20051;-67
2022/01/17 01:53:36;;;;;;;12.10;2.17;;;5.20;99.90;;;;;;5094517;28;20083;-66
2022/01/17 01:56:02;;;;;;;15.02;3.13;;;5.20;99.90;;;;;;5094372;28;20044;-66
2022/01/17 01:58:27;;;;;;;13.68;2.65;;;5.20;99.90;;;;;;5095805;28;20056;-66
2022/01/17 02:00:54;;;;;;;12.68;2.63;;;5.20;99.90;;;;;;5094260;28;20110;-66
2022/01/17 02:03:20;;;;;;;12.13;3.03;;;5.20;99.90;;;;;;5094909;28;20047;-66
2022/01/17 02:05:46;;;;;;;14.30;2.40;;;5.20;99.90;;;;;;5094485;28;20048;-66
2022/01/17 02:08:13;;;;;;;9.95;2.00;;;5.20;99.90;;;;;;5095336;28;20092;-66
2022/01/17 02:10:39;;;;;;;17.13;2.58;;;5.10;99.90;;;;;;5093037;28;20056;-66
2022/01/17 02:13:05;;;;;;;12.50;2.60;;;5.10;99.90;;;;;;5083095;28;20055;-66
2022/01/17 02:15:30;;;;;;;11.80;2.30;;;5.10;99.90;;;;;;5074931;28;20465;-66
2022/01/17 02:17:58;;;;;;;13.25;2.38;;;5.10;99.90;;;;;;5073946;28;20053;-67
2022/01/17 02:20:34;;;;;;;13.90;2.63;;;5.00;99.90;;;;;;5074286;28;20481;-66
2022/01/17 02:23:04;;;;;;;13.57;2.67;;;5.00;99.90;;;;;;5128167;27;20055;-66
2022/01/17 02:25:30;;;;;;;14.23;2.22;;;5.00;99.90;;;;;;5076803;28;20043;-66
2022/01/17 02:27:56;;;;;;;11.68;2.53;;;5.00;99.90;;;;;;5092895;28;20052;-66
2022/01/17 02:30:23;;;;;;;15.93;3.40;;;4.90;99.90;;;;;;5075959;28;20090;-66
2022/01/17 02:32:49;;;;;;;12.60;2.50;;;4.90;99.90;;;;;;5093267;28;20534;-66
2022/01/17 02:35:20;;;;;;;11.07;2.70;;;4.90;99.90;;;;;;5093903;28;20048;-66
2022/01/17 02:37:46;;;;;;;13.73;2.80;;;4.90;99.90;;;;;;5076768;28;20154;-66
2022/01/17 02:40:17;;;;;;;16.90;2.65;;;4.90;99.90;;;;;;5094259;28;20146;-67
2022/01/17 02:42:45;;;;;;;16.73;2.63;;;4.80;99.90;;;;;;5076007;28;20063;-66
2022/01/17 02:45:19;;;;;;;20.17;2.70;;;4.80;99.90;;;;;;5095251;28;20055;-69
2022/01/17 02:47:44;;;;;;;12.45;2.60;;;4.80;99.90;;;;;;5083744;28;20051;-67
2022/01/17 02:50:10;;;;;;;14.32;3.08;;;4.80;99.90;;;;;;5095691;28;20056;-65
2022/01/17 02:52:36;;;;;;;15.70;2.58;;;4.80;99.90;;;;;;5093760;28;20476;-66
2022/01/17 02:55:02;;;;;;;15.00;2.30;;;4.70;99.90;;;;;;5093783;28;20044;-65
2022/01/17 02:57:32;;;;;;;13.75;2.80;;;4.70;99.90;;;;;;5094780;28;20098;-67
2022/01/17 02:59:57;;;;;;;15.02;2.40;;;4.60;99.90;;;;;;5094146;28;20056;-68
2022/01/17 03:02:23;;;;;;;14.80;2.70;;;4.70;99.90;;;;;;5082936;28;20067;-67
2022/01/17 03:04:49;;;;;;;13.77;2.80;;;4.70;99.90;;;;;;5093296;28;20468;-66
2022/01/17 03:07:14;;;;;;;13.15;2.45;;;4.70;99.90;;;;;;5093073;28;20487;-65
2022/01/17 03:09:49;;;;;;;21.38;3.13;;;4.60;99.90;;;;;;5093005;28;20059;-66
2022/01/17 03:12:15;;;;;;;13.88;2.90;;;4.60;99.90;;;;;;5093318;28;20052;-66
2022/01/17 03:14:40;;;;;;;9.02;1.92;;;4.50;99.90;;;;;;5092416;28;20052;-65
2022/01/17 03:17:06;;;;;;;11.30;2.47;;;4.50;99.90;;;;;;5082262;28;20060;-66
2022/01/17 03:19:32;;;;;;;11.63;2.08;;;4.40;99.90;;;;;;5093977;28;20105;-68
2022/01/17 03:21:57;;;;;;;13.80;2.30;;;4.50;99.90;;;;;;5093044;28;20079;-67
2022/01/17 03:24:23;;;;;;;12.20;2.92;;;4.40;99.90;;;;;;5094268;28;20052;-66
2022/01/17 03:26:48;;;;;;;12.32;3.08;;;4.40;99.90;;;;;;5093233;28;20127;-67
2022/01/17 03:29:14;;;;;;;14.40;2.55;;;4.40;99.90;;;;;;5092857;28;20083;-66
2022/01/17 03:31:39;;;;;;;15.77;2.92;;;4.50;99.90;;;;;;5092071;28;20508;-66
2022/01/17 03:34:05;;;;;;;19.92;2.35;;;4.50;99.90;;;;;;5092698;28;20451;-65
2022/01/17 03:36:30;;;;;;;17.60;3.42;;;4.50;99.90;;;;;;5093223;28;20052;-67
2022/01/17 03:38:56;;;;;;;10.50;2.95;;;4.60;99.90;;;;;;5092655;28;20063;-66
2022/01/17 03:41:23;;;;;;;13.65;2.45;;;4.50;99.90;;;;;;5091833;28;20089;-66
2022/01/17 03:43:49;;;;;;;13.57;2.25;;;4.50;99.90;;;;;;5094297;28;20063;-66
2022/01/17 03:46:14;;;;;;;15.98;3.25;;;4.50;99.90;;;;;;5093521;28;20055;-66
2022/01/17 03:48:40;;;;;;;15.30;2.20;;;4.50;99.90;;;;;;5093017;28;20039;-66
2022/01/17 03:51:05;;;;;;;13.30;2.78;;;4.60;99.90;;;;;;5091619;28;20373;-66
2022/01/17 03:53:32;;;;;;;22.40;3.25;;;4.60;99.90;;;;;;5092810;28;20157;-66
2022/01/17 03:55:58;;;;;;;11.93;2.30;;;4.70;99.90;;;;;;5092690;28;20047;-65
2022/01/17 03:58:27;;;;;;;10.70;2.30;;;4.70;99.90;;;;;;5091989;28;20044;-66
2022/01/17 04:00:55;;;;;;;17.30;1.80;;;4.80;99.90;;;;;;5091670;28;20055;-67
2022/01/17 04:03:21;;;;;;;11.20;2.50;;;4.80;99.90;;;;;;5092124;28;20052;-65
2022/01/17 04:05:47;;;;;;;9.82;2.20;;;4.80;99.90;;;;;;5092396;28;20400;-67
2022/01/17 04:08:13;;;;;;;15.20;3.05;;;4.80;99.90;;;;;;5092167;28;20056;-68
2022/01/17 04:10:39;;;;;;;13.52;3.00;;;4.90;99.90;;;;;;5092269;28;20093;-66
2022/01/17 04:13:04;;;;;;;9.50;2.63;;;4.90;99.90;;;;;;5091737;28;20092;-65
2022/01/17 04:15:35;;;;;;;13.13;2.28;;;4.90;99.90;;;;;;5093238;28;20109;-65
2022/01/17 04:18:03;;;;;;;11.63;2.92;;;4.90;99.90;;;;;;5074429;28;20052;-66
2022/01/17 04:20:29;;;;;;;8.32;2.08;;;4.90;99.90;;;;;;5075945;28;20087;-66
2022/01/17 04:23:02;;;;;;;11.18;2.30;;;4.90;99.90;;;;;;5092111;28;20063;-66
2022/01/17 04:25:30;;;;;;;11.98;3.28;;;4.90;99.90;;;;;;5093625;28;20400;-66
2022/01/17 04:27:58;;;;;;;10.75;2.60;;;4.90;99.90;;;;;;5092014;28;20056;-66
2022/01/17 04:30:24;;;;;;;13.95;2.40;;;4.80;99.90;;;;;;5093183;28;20051;-67
2022/01/17 04:32:50;;;;;;;12.02;2.28;;;4.80;99.90;;;;;;5125708;27;20059;-67
2022/01/17 04:35:21;;;;;;;11.18;2.90;;;4.80;99.90;;;;;;5075173;28;20131;-66
2022/01/17 04:38:01;;;;;;;11.38;2.10;;;4.70;99.90;;;;;;5093086;28;20048;-66
2022/01/17 04:40:34;;;;;;;12.95;2.78;;;4.70;99.90;;;;;;5074513;28;20044;-66
2022/01/17 04:42:59;;;;;;;12.75;2.53;;;4.70;99.90;;;;;;5086374;28;20396;-67
2022/01/17 04:45:25;;;;;;;11.80;2.45;;;4.70;99.90;;;;;;5091570;28;20056;-66
2022/01/17 04:47:52;;;;;;;11.68;2.28;;;4.70;99.90;;;;;;5074574;28;20058;-65
2022/01/17 04:50:23;;;;;;;11.63;2.33;;;4.70;99.90;;;;;;5092757;28;20052;-67
2022/01/17 04:52:49;;;;;;;11.00;2.20;;;4.60;99.90;;;;;;5074925;28;20047;-67
2022/01/17 04:55:17;;;;;;;9.18;1.95;;;4.70;99.90;;;;;;5093537;28;20090;-67
2022/01/17 04:57:45;;;;;;;19.08;3.15;;;4.60;99.90;;;;;;5091119;28;20056;-67
2022/01/17 05:00:14;;;;;;;13.30;2.22;;;4.60;99.90;;;;;;5074350;28;20119;-67
2022/01/17 05:02:40;;;;;;;13.55;2.60;;;4.60;99.90;;;;;;5092551;28;20131;-68
2022/01/17 05:05:06;;;;;;;12.75;2.83;;;4.70;99.90;;;;;;5091618;28;20556;-67
2022/01/17 05:07:33;;;;;;;13.05;2.55;;;4.80;99.90;;;;;;5108829;28;20097;-66
2022/01/17 05:09:59;;;;;;;11.55;2.58;;;4.80;99.90;;;;;;5091537;28;20090;-68
2022/01/17 05:12:26;;;;;;;9.70;2.30;;;4.90;99.90;;;;;;5091940;28;20523;-67
2022/01/17 05:14:53;;;;;;;14.30;3.00;;;4.90;99.90;;;;;;5105238;28;20049;-65
2022/01/17 05:19:48;;;;;;;11.38;2.22;;;5.00;99.90;;;;;;5071059;28;20055;-67
2022/01/17 05:22:15;;;;;;;11.95;2.10;;;5.10;99.90;;;;;;5123434;28;20051;-66
2022/01/17 05:24:41;;;;;;;8.45;2.28;;;5.20;99.90;;;;;;5092200;28;20060;-67
2022/01/17 05:27:07;;;;;;;9.20;2.58;;;5.20;99.90;;;;;;5091291;28;20449;-67
2022/01/17 05:29:32;;;;;;;12.85;2.80;;;5.30;99.90;;;;;;5094866;28;20101;-67
2022/01/17 05:31:58;;;;;;;12.38;2.50;;;5.40;99.90;;;;;;5095105;28;20135;-66
2022/01/17 05:34:24;;;;;;;12.75;2.53;;;5.40;99.90;;;;;;5095520;28;20127;-66
2022/01/17 05:36:49;;;;;;;13.38;2.85;;;5.50;99.90;;;;;;5093956;28;20401;-67
2022/01/17 05:39:15;;;;;;;13.40;2.85;;;5.50;99.90;;;;;;5094958;28;20408;-67
2022/01/17 05:41:41;;;;;;;10.45;3.15;;;5.50;99.90;;;;;;5094744;28;20052;-66
2022/01/17 05:44:07;;;;;;;13.10;3.17;;;5.50;99.90;;;;;;5077533;28;20059;-67
2022/01/17 05:46:32;;;;;;;11.55;2.83;;;5.60;99.90;;;;;;5095594;28;20101;-66
2022/01/17 05:48:58;;;;;;;8.10;2.80;;;5.60;99.90;;;;;;5085618;28;20123;-67
2022/01/17 05:51:23;;;;;;;15.18;3.05;;;5.60;99.90;;;;;;5087821;28;20127;-66
2022/01/17 05:53:49;;;;;;;18.88;4.30;;;5.60;99.90;;;;;;5095584;28;20056;-69
2022/01/17 05:56:15;;;;;;;8.77;2.55;;;5.60;99.90;;;;;;5094160;28;20048;-67
2022/01/17 05:58:40;;;;;;;11.68;3.05;;;5.60;99.90;;;;;;5094616;28;20044;-67
2022/01/17 06:01:06;;;;;;;13.75;2.60;;;5.60;99.90;;;;;;5093992;28;20112;-67
2022/01/17 06:03:32;;;;;;;15.40;3.08;;;5.60;99.90;;;;;;5095042;28;20488;-67
2022/01/17 06:05:58;;;;;;;16.30;2.97;;;5.60;99.90;;;;;;5093738;28;20059;-67
2022/01/17 06:08:24;;;;;;;17.83;3.83;;;5.70;99.90;;;;;;5095679;28;20044;-67
2022/01/17 06:10:49;;;;;;;15.45;3.80;;;5.70;99.90;;;;;;5062027;28;20135;-67
2022/01/17 06:13:15;;;;;;;14.52;3.10;;;5.80;99.90;;;;;;5074421;28;20135;-66
2022/01/17 06:15:40;;;;;;;12.10;3.60;;;5.90;99.90;;;;;;5074009;28;20048;-67
2022/01/17 06:18:06;;;;;;;18.20;3.15;;;5.90;99.90;;;;;;5075018;28;20131;-68
2022/01/17 06:20:31;;;;;;;10.20;3.20;;;5.90;99.90;;;;;;5075241;28;20114;-67
2022/01/17 06:22:57;;;;;;;12.90;3.83;;;5.90;99.90;;;;;;5074046;28;20059;-67
2022/01/17 06:25:22;;;;;;;11.90;3.50;;;5.90;99.90;;;;;;5070202;28;20044;-67
2022/01/17 06:27:48;;;;;;;11.65;3.35;;;5.90;99.90;;;;;;5091682;28;20901;-66
2022/01/17 06:30:14;;;;;;;12.40;3.97;;;5.90;99.90;;;;;;5093777;28;20139;-67
2022/01/17 06:32:40;;;;;;;17.00;4.25;;;5.90;99.90;;;;;;5077060;28;20060;-67
2022/01/17 06:35:06;;;;;;;13.82;4.70;;;5.90;99.90;;;;;;5095493;28;20111;-67
2022/01/17 06:37:32;;;;;;;17.67;4.18;;;6.00;99.90;;;;;;5091130;28;20047;-66
2022/01/17 06:39:58;;;;;;;17.10;4.78;;;5.90;99.90;;;;;;5106839;28;20043;-67
2022/01/17 06:42:24;;;;;;;12.48;3.80;;;5.90;99.90;;;;;;5089589;28;20036;-67
2022/01/17 06:44:50;;;;;;;19.33;5.10;;;6.00;99.90;;;;;;5087052;28;20063;-65
2022/01/17 06:47:16;;;;;;;12.80;4.20;;;6.00;99.90;;;;;;5072574;28;20102;-65
2022/01/17 06:49:41;;;;;;;18.50;4.38;;;6.00;99.90;;;;;;5079792;28;20044;-66
2022/01/17 06:52:07;;;;;;;15.80;4.45;;;6.00;99.90;;;;;;5078361;28;20080;-66
2022/01/17 06:54:33;;;;;;;13.05;5.03;;;6.00;99.90;;;;;;5078785;28;20045;-65
2022/01/17 06:56:58;;;;;;;16.38;4.60;;;6.00;99.90;;;;;;5073356;28;20170;-66
2022/01/17 06:59:24;;;;;;;20.73;5.57;;;6.20;99.90;;;;;;5073976;28;20515;-67
2022/01/17 07:01:49;;;;;;;16.02;5.28;;;6.00;99.90;;;;;;5072451;28;20040;-65
2022/01/17 07:04:15;;;;;;;17.15;5.88;;;6.00;99.90;;;;;;5090645;28;20055;-65
2022/01/17 07:06:40;;;;;;;11.57;4.70;;;6.10;99.90;;;;;;5056363;28;20493;-66
2022/01/17 07:09:09;;;;;;;18.23;5.00;;;6.00;99.90;;;;;;5074340;28;20090;-66
2022/01/17 07:11:38;;;;;;;16.30;5.10;;;6.10;99.90;;;;;;5074174;28;20056;-67
2022/01/17 07:14:11;;;;;;;16.92;5.00;;;6.10;99.90;;;;;;5056529;28;20131;-65
2022/01/17 07:16:38;;;;;;;15.73;4.70;;;6.10;99.90;;;;;;5055816;28;20084;-66
2022/01/17 07:19:04;;;;;;;22.92;5.55;;;6.10;99.90;;;;;;5090864;28;20040;-66
2022/01/17 07:21:29;;;;;;;18.60;4.53;;;6.10;99.90;;;;;;5092345;28;20147;-67
2022/01/17 07:23:55;;;;;;;21.13;5.15;;;6.20;99.90;;;;;;5093080;28;20122;-67
2022/01/17 07:26:21;;;;;;;15.02;5.20;;;6.10;99.90;;;;;;5088661;28;20500;-67
2022/01/17 07:28:46;;;;;;;17.92;5.03;;;6.10;99.90;;;;;;5066523;28;20118;-67
2022/01/17 07:31:12;;;;;;;22.45;5.97;;;6.10;99.90;;;;;;5074362;28;20606;-66
2022/01/17 07:33:38;;;;;;;18.52;5.35;;;6.20;99.90;;;;;;5072866;28;20060;-67
2022/01/17 07:36:07;;;;;;;13.90;5.07;;;6.10;99.90;;;;;;5081465;28;20055;-66
2022/01/17 07:38:34;;;;;;;18.75;4.72;;;6.20;99.90;;;;;;5108856;28;20059;-66
2022/01/17 07:41:00;;;;;;;18.85;4.90;;;6.20;99.90;;;;;;5092787;28;20055;-66
2022/01/17 07:43:26;;;;;;;18.90;4.55;;;6.20;99.90;;;;;;5093704;28;20342;-68
2022/01/17 07:46:06;;;;;;;20.38;5.03;;;6.20;99.90;;;;;;5073060;28;20074;-66
2022/01/17 07:48:58;;;;;;;17.75;4.68;;;6.20;99.90;;;;;;5073837;28;20053;-66
2022/01/17 07:51:26;;;;;;;15.95;4.20;;;6.30;99.90;;;;;;5085775;28;20396;-66
2022/01/17 07:53:53;;;;;;;15.57;4.40;;;6.30;99.90;;;;;;5086345;28;20040;-66
2022/01/17 07:56:19;;;;;;;15.77;4.15;;;6.30;99.90;;;;;;5085205;28;20214;-66
2022/01/17 07:58:45;;;;;;;22.73;5.30;;;6.30;99.90;;;;;;5082047;28;20047;-67
2022/01/17 08:01:11;;;;;;;19.90;4.28;;;6.40;99.90;;;;;;5074244;28;20078;-67
2022/01/17 08:03:36;;;;;;;25.17;5.72;;;6.40;99.90;;;;;;5073554;28;20051;-66
2022/01/17 08:06:03;;;;;;;13.38;3.67;;;6.40;99.90;;;;;;5082675;28;20124;-66
2022/01/17 08:08:29;;;;;;;21.85;4.50;;;6.40;99.90;;;;;;5092034;28;20117;-65
2022/01/17 08:10:54;;;;;;;24.10;4.90;;;6.40;99.90;;;;;;5090316;28;20056;-66
2022/01/17 08:13:20;;;;;;;17.88;4.10;;;6.50;99.90;;;;;;5082969;28;20055;-67
2022/01/17 08:15:46;;;;;;;21.58;5.20;;;;;;;;;;5089077;28;20560;-68
2022/01/17 08:18:13;;;;;;;14.82;3.78;;;6.50;99.90;;;;;;5089766;28;20087;-67
2022/01/17 08:20:40;;;;;;;28.13;4.80;;;6.60;99.90;;;;;;5092274;28;20130;-65
2022/01/17 08:23:05;;;;;;;15.35;3.72;;;6.60;99.90;;;;;;5093324;28;20518;-65
2022/01/17 08:25:31;;;;;;;22.33;5.13;;;6.60;99.90;;;;;;5092042;28;20110;-67
2022/01/17 08:27:56;;;;;;;14.60;3.92;;;6.60;99.90;;;;;;5092008;28;20117;-68
2022/01/17 08:30:23;;;;;;;23.00;4.20;;;6.60;99.90;;;;;;5093319;28;20091;-67
2022/01/17 08:32:50;;;;;;;20.27;4.35;;;6.60;99.90;;;;;;5091227;28;20056;-66
2022/01/17 08:35:15;;;;;;;18.92;4.97;;;6.70;99.90;;;;;;5092990;28;20502;-67
2022/01/17 08:37:41;;;;;;;23.75;5.13;;;6.70;99.90;;;;;;5091647;28;20064;-66
2022/01/17 08:40:08;;;;;;;22.80;4.25;;;6.70;99.90;;;;;;5092016;28;20043;-66
2022/01/17 08:42:36;;;;;;;19.77;4.20;;;6.60;99.90;;;;;;5092883;28;20048;-66
2022/01/17 08:45:04;;;;;;;18.23;4.10;;;6.70;99.90;;;;;;5074226;28;20055;-68
2022/01/17 08:47:29;;;;;;;26.00;4.85;;;6.70;99.90;;;;;;5091641;28;20559;-66
2022/01/17 08:49:55;;;;;;;18.58;3.97;;;6.80;99.90;;;;;;5091475;28;20119;-68
2022/01/17 08:52:20;;;;;;;22.67;4.18;;;6.70;99.90;;;;;;5091711;28;20055;-68
2022/01/17 08:54:47;;;;;;;21.83;4.70;;;6.80;99.90;;;;;;5091706;28;20086;-68
2022/01/17 08:57:14;;;;;;;20.38;3.90;;;6.80;99.90;;;;;;5091665;28;20051;-67
2022/01/17 08:59:40;;;;;;;16.42;4.05;;;6.90;99.90;;;;;;5125464;28;20043;-67
2022/01/17 09:02:05;;;;;;;23.15;4.53;;;6.90;99.90;;;;;;5092661;28;20506;-67
2022/01/17 09:04:31;;;;;;;19.95;5.30;;;6.90;99.90;;;;;;5095388;28;20052;-67
2022/01/17 09:06:57;;;;;;;17.92;4.47;;;6.90;99.90;;;;;;5095810;28;20048;-67
2022/01/17 09:09:23;;;;;;;25.52;3.97;;;6.90;99.90;;;;;;5095737;28;20518;-66
2022/01/17 09:11:48;;;;;;;22.77;3.92;;;6.90;99.90;;;;;;5096259;28;20056;-68
2022/01/17 09:14:14;;;;;;;24.52;3.97;;;6.90;99.90;;;;;;5095008;28;20475;-65
2022/01/17 09:16:40;;;;;;;23.45;4.95;;;6.90;99.90;;;;;;5095574;28;20105;-67
2022/01/17 09:19:07;;;;;;;25.70;5.90;;;6.90;99.90;;;;;;5092205;28;20438;-68
2022/01/17 09:21:32;;;;;;;25.00;3.35;;;7.00;99.90;;;;;;5076842;28;20519;-67
2022/01/17 09:23:58;;;;;;;21.83;4.10;;;7.00;99.90;;;;;;5078738;28;20052;-67
2022/01/17 09:26:28;;;;;;;23.17;4.10;;;7.00;99.90;;;;;;5082590;28;20497;-67
2022/01/17 09:28:54;;;;;;;28.17;4.13;;;7.10;99.90;;;;;;5076620;28;20369;-67
2022/01/17 09:31:21;;;;;;;30.67;5.55;;;7.10;99.90;;;;;;5076422;28;20114;-68
2022/01/17 09:33:46;;;;;;;21.77;3.85;;;7.10;99.90;;;;;;5075890;28;20058;-68
2022/01/17 09:36:13;;;;;;;19.67;4.50;;;7.10;99.90;;;;;;5077847;28;20119;-67
2022/01/17 09:38:39;;;;;;;20.88;4.30;;;7.20;99.90;;;;;;5082970;28;20048;-69
2022/01/17 09:41:04;;;;;;;23.75;4.43;;;7.20;99.90;;;;;;5080220;28;20502;-67
2022/01/17 09:43:30;;;;;;;20.08;4.10;;;7.30;99.90;;;;;;5094174;28;20052;-67
2022/01/17 09:45:57;;;;;;;29.20;4.57;;;7.30;99.90;;;;;;5089835;28;20052;-68
2022/01/17 09:48:33;;;;;;;24.17;3.90;;;7.40;99.90;;;;;;5092607;28;20056;-66
2022/01/17 09:51:04;;;;;;;24.85;5.10;;;7.40;99.90;;;;;;5094777;28;20048;-66
2022/01/17 09:53:38;;;;;;;30.15;4.50;;;7.50;99.90;;;;;;5094823;28;20059;-67
2022/01/17 09:56:06;;;;;;;22.63;3.97;;;7.60;99.90;;;;;;5080122;28;20040;-67
2022/01/17 09:58:36;;;;;;;25.70;4.25;;;7.60;99.90;;;;;;5115677;28;20457;-67
2022/01/17 10:01:04;;;;;;;24.52;3.83;;;7.70;99.90;;;;;;5103198;28;20070;-68
2022/01/17 10:03:30;;;;;;;28.25;4.70;;;7.80;99.90;;;;;;5076337;28;20056;-69
2022/01/17 10:05:56;;;;;;;18.63;4.15;;;7.80;99.90;;;;;;5077652;28;20049;-67
2022/01/17 10:08:22;;;;;;;21.75;3.72;;;;;;;;;;5078701;28;20037;-67
2022/01/17 10:10:56;;;;;;;27.77;4.20;;;7.90;99.90;;;;;;5090360;28;20060;-67
2022/01/17 10:13:28;;;;;;;25.08;4.75;;;8.00;99.90;;;;;;5094526;28;20079;-67
2022/01/17 10:16:07;;;;;;;22.70;4.57;;;8.10;99.90;;;;;;5094358;28;20060;-67
2022/01/17 10:19:01;;;;;;;27.98;4.32;;;8.20;99.90;;;;;;5094874;28;20052;-66
2022/01/17 10:21:44;;;;;;;20.90;3.90;;;8.30;99.90;;;;;;5095116;28;20048;-66
2022/01/17 10:24:24;;;;;;;26.85;4.75;;;8.30;99.90;;;;;;5077127;28;20135;-67
2022/01/17 10:27:13;;;;;;;24.90;4.20;;;8.40;99.90;;;;;;5094478;28;20048;-67
2022/01/17 10:30:12;;;;;;;29.08;5.53;;;8.50;99.90;;;;;;5074145;28;20488;-67
2022/01/17 10:35:30;;;;;;;24.48;4.93;;;8.60;99.90;;;;;;5074265;28;20056;-65
2022/01/17 10:38:01;;;;;;;30.77;4.30;;;8.70;99.90;;;;;;5075531;28;20450;-66
2022/01/17 10:40:30;;;;;;;23.23;3.53;;;8.70;99.90;;;;;;5085291;28;20400;-66
2022/01/17 10:42:56;;;;;;;32.03;4.90;;;9.00;99.90;;;;;;5093578;28;20119;-67
2022/01/17 10:45:25;;;;;;;28.42;4.50;;;8.80;99.90;;;;;;5095090;28;20139;-67
2022/01/17 10:47:54;;;;;;;28.48;4.22;;;8.90;99.90;;;;;;5093749;28;20048;-66
2022/01/17 10:50:23;;;;;;;26.70;4.28;;;8.90;99.90;;;;;;5093931;28;20070;-65
2022/01/17 10:52:55;;;;;;;23.92;4.07;;;8.90;99.90;;;;;;5093619;28;20054;-65
2022/01/17 10:55:26;;;;;;;26.98;4.28;;;9.00;99.90;;;;;;5095086;28;20056;-66
2022/01/17 10:57:55;;;;;;;26.90;4.85;;;9.00;99.90;;;;;;5092387;28;20055;-66
2022/01/17 11:00:26;;;;;;;21.35;4.82;;;9.10;99.90;;;;;;5092006;28;20135;-65
2022/01/17 11:03:07;;;;;;;25.70;5.38;;;9.10;99.90;;;;;;5091731;28;20054;-66
2022/01/17 11:05:39;;;;;;;17.73;4.60;;;9.20;99.90;;;;;;5066636;28;20067;-66
2022/01/17 11:08:05;;;;;;;27.15;5.38;;;9.20;99.90;;;;;;5083617;28;20087;-67
2022/01/17 11:10:37;;;;;;;34.38;5.25;;;9.20;99.90;;;;;;5073412;28;20060;-67
2022/01/17 11:13:06;;;;;;;23.67;4.17;;;9.20;99.90;;;;;;5084451;28;20072;-66
2022/01/17 11:15:34;;;;;;;28.40;4.93;;;9.20;99.90;;;;;;5074757;28;20443;-67
2022/01/17 11:18:08;;;;;;;29.15;4.95;;;9.20;99.90;;;;;;5072679;28;20060;-69
2022/01/17 11:20:34;;;;;;;23.85;4.60;;;9.20;99.90;;;;;;5094743;28;20050;-66
2022/01/17 11:23:00;;;;;;;33.13;4.72;;;9.20;99.90;;;;;;5113259;28;20055;-66
2022/01/17 11:25:36;;;;;;;27.67;4.70;;;9.20;99.90;;;;;;5101540;28;20055;-67
2022/01/17 11:28:04;;;;;;;25.98;4.63;;;9.20;99.90;;;;;;5093868;28;20468;-66
2022/01/17 11:30:33;;;;;;;27.17;5.50;;;9.20;99.90;;;;;;5087017;28;20610;-67
2022/01/17 11:33:00;;;;;;;29.30;5.28;;;9.20;99.90;;;;;;5082666;28;20078;-66
2022/01/17 11:35:26;;;;;;;21.92;5.30;;;9.30;99.90;;;;;;5093995;28;20393;-67
2022/01/17 11:37:58;;;;;;;36.75;6.35;;;9.40;99.90;;;;;;5091654;28;20131;-65
2022/01/17 11:40:28;;;;;;;;;;;9.50;99.90;;;;;;5091551;28;20052;-67
2022/01/17 11:42:54;;;;;;;26.85;4.18;;;9.50;99.90;;;;;;5101526;28;19920;-66
2022/01/17 11:45:33;;;;;;;30.08;6.18;;;9.50;99.90;;;;;;5120391;27;20055;-68
2022/01/17 11:48:07;;;;;;;30.25;5.70;;;9.60;99.90;;;;;;5093403;28;20055;-67
2022/01/17 11:50:43;;;;;;;34.78;5.15;;;9.60;99.90;;;;;;5092805;28;20048;-68
2022/01/17 11:53:11;;;;;;;25.92;4.72;;;9.60;99.90;;;;;;5088201;28;20082;-67
2022/01/17 11:55:43;;;;;;;29.40;5.72;;;9.60;99.90;;;;;;5092988;28;20056;-67
2022/01/17 11:58:24;;;;;;;31.75;6.18;;;9.60;99.90;;;;;;5077790;28;20523;-66
2022/01/17 12:01:13;;;;;;;40.75;6.68;;;9.70;99.90;;;;;;5092406;28;20052;-66
2022/01/17 12:03:40;;;;;;;26.40;5.70;;;9.70;99.90;;;;;;5092468;28;20056;-66
2022/01/17 12:06:22;;;;;;;28.88;5.30;;;9.80;99.90;;;;;;5076967;28;20052;-66
2022/01/17 12:08:50;;;;;;;23.20;4.32;;;10.00;99.90;;;;;;5071708;28;20131;-65
2022/01/17 12:11:30;;;;;;;28.40;5.53;;;10.00;99.90;;;;;;5071578;28;20127;-65
2022/01/17 12:14:00;;;;;;;25.88;5.70;;;10.00;99.90;;;;;;5076309;28;20047;-67
2022/01/17 12:16:29;;;;;;;27.98;5.22;;;10.00;99.90;;;;;;5087685;28;20052;-65
2022/01/17 12:19:00;;;;;;;24.13;5.18;;;10.00;99.90;;;;;;5093619;28;20060;-65
2022/01/17 12:21:35;;;;;;;23.05;4.82;;;10.00;99.90;;;;;;5092429;28;20056;-65
2022/01/17 12:24:22;;;;;;;21.13;4.45;;;10.00;99.90;;;;;;5093073;28;20101;-67
2022/01/17 12:27:04;;;;;;;23.05;5.22;;;9.90;99.90;;;;;;5091722;28;20439;-66
2022/01/17 12:30:07;;;;;;;24.13;5.05;;;9.90;99.90;;;;;;5093213;28;20131;-66
2022/01/17 12:32:36;;;;;;;;;;;9.80;99.90;;;;;;5072513;28;20396;-66
2022/01/17 12:35:04;;;;;;;31.23;5.97;;;9.80;99.90;;;;;;5072063;28;19936;-68
2022/01/17 12:37:50;;;;;;;20.55;4.25;;;9.80;99.90;;;;;;5070741;28;20057;-67
2022/01/17 12:40:30;;;;;;;21.35;4.90;;;9.90;99.90;;;;;;5077566;28;20453;-66
2022/01/17 12:43:01;;;;;;;29.55;5.63;;;10.00;99.90;;;;;;5092798;28;20186;-65
2022/01/17 12:45:29;;;;;;;29.23;4.90;;;10.10;99.90;;;;;;5090973;28;20426;-65
2022/01/17 12:47:57;;;;;;;26.38;4.63;;;10.10;99.90;;;;;;5091360;28;20131;-68
2022/01/17 12:50:26;;;;;;;30.42;5.65;;;10.00;99.90;;;;;;5091072;28;20337;-69
2022/01/17 12:52:53;;;;;;;27.90;5.28;;;10.00;99.90;;;;;;5074150;28;20040;-67
2022/01/17 12:55:20;;;;;;;26.23;5.00;;;10.00;99.90;;;;;;5091494;28;20052;-68
2022/01/17 12:57:46;;;;;;;27.15;4.85;;;10.00;99.90;;;;;;5091933;28;20494;-66
2022/01/17 13:00:23;;;;;;;27.52;4.78;;;10.00;99.90;;;;;;5074369;28;20130;-68
2022/01/17 13:02:51;;;;;;;26.55;4.50;;;9.90;99.90;;;;;;5091265;28;20130;-68
2022/01/17 13:05:24;;;;;;;16.92;2.67;;;9.90;99.90;;;;;;5092939;28;20056;-68
2022/01/17 13:07:51;;;;;;;24.20;6.65;;;9.80;99.90;;;;;;5092895;28;20056;-66